createdAt,value
2019-04-06T00:00:02.961Z,6.84
2019-04-06T00:10:02.995Z,6.80
2019-04-06T00:20:02.547Z,6.76
2019-04-06T00:30:02.890Z,6.60
2019-04-06T00:40:02.473Z,6.49
2019-04-06T00:50:03.328Z,6.56
2019-04-06T01:00:03.237Z,6.55
2019-04-06T01:10:03.047Z,6.59
2019-04-06T01:20:02.942Z,6.70
2019-04-06T01:30:03.105Z,6.25
2019-04-06T01:40:02.628Z,6.21
2019-04-06T01:50:03.497Z,6.26
2019-04-06T02:00:03.437Z,6.37
2019-04-06T02:10:03.492Z,6.32
2019-04-06T02:20:02.756Z,6.18
2019-04-06T02:30:02.897Z,6.17
2019-04-06T02:40:02.548Z,6.00
2019-04-06T02:50:03.378Z,5.93
2019-04-06T03:00:03.195Z,5.76
2019-04-06T03:10:03.791Z,5.50
2019-04-06T03:20:02.612Z,5.55
2019-04-06T03:30:03.446Z,5.58
2019-04-06T03:40:03.076Z,5.66
2019-04-06T03:50:02.840Z,5.79
2019-04-06T04:00:02.996Z,5.59
2019-04-06T04:10:02.908Z,5.45
2019-04-06T04:20:02.592Z,5.61
2019-04-06T04:30:03.401Z,5.73
2019-04-06T04:40:02.358Z,5.95
2019-04-06T04:50:03.262Z,6.06
2019-04-06T05:00:02.998Z,6.16
2019-04-06T05:10:02.695Z,6.15
2019-04-06T05:20:02.760Z,6.13
2019-04-06T05:30:03.005Z,6.19
2019-04-06T05:40:02.204Z,6.28
2019-04-06T05:50:02.552Z,6.32
2019-04-06T06:00:03.155Z,6.51
2019-04-06T06:10:02.891Z,6.73
2019-04-06T06:20:02.155Z,7.03
2019-04-06T06:30:03.438Z,7.20
2019-04-06T06:40:02.280Z,7.43
2019-04-06T06:50:03.029Z,7.63
2019-04-06T07:00:02.820Z,7.47
2019-04-06T07:10:05.637Z,7.85
2019-04-06T07:20:02.938Z,7.71
2019-04-06T07:30:03.694Z,8.16
2019-04-06T07:40:02.653Z,8.97
2019-04-06T07:50:02.383Z,9.14
2019-04-06T08:00:03.236Z,10.41
2019-04-06T08:10:02.239Z,11.65
2019-04-06T08:20:02.920Z,11.59
2019-04-06T08:30:02.979Z,10.62
2019-04-06T08:40:02.684Z,11.09
2019-04-06T08:50:02.679Z,11.83
2019-04-06T09:00:02.975Z,13.12
2019-04-06T09:10:03.093Z,12.95
2019-04-06T09:20:02.824Z,13.25
2019-04-06T09:30:03.014Z,12.20
2019-04-06T09:40:02.713Z,13.34
2019-04-06T09:50:02.525Z,13.75
2019-04-06T10:00:03.582Z,13.06
2019-04-06T10:10:02.111Z,14.02
2019-04-06T10:20:02.343Z,13.30
2019-04-06T10:30:03.666Z,13.47
2019-04-06T10:40:02.260Z,14.38
2019-04-06T10:50:02.684Z,13.03
2019-04-06T11:00:03.633Z,13.20
2019-04-06T11:10:02.298Z,14.49
2019-04-06T11:20:02.535Z,14.73
2019-04-06T11:30:12.725Z,13.93
2019-04-06T11:40:02.668Z,15.18
2019-04-06T11:50:02.647Z,15.34
2019-04-06T12:00:03.558Z,14.93
2019-04-06T12:10:03.596Z,15.20
2019-04-06T12:20:03.221Z,15.90
2019-04-06T12:30:03.572Z,15.26
2019-04-06T12:40:02.510Z,15.47
2019-04-06T12:50:02.725Z,15.46
2019-04-06T13:00:03.553Z,16.17
2019-04-06T13:10:02.697Z,15.97
2019-04-06T13:20:02.599Z,15.97
2019-04-06T13:30:03.244Z,15.62
2019-04-06T13:40:03.261Z,16.25
2019-04-06T13:50:02.370Z,16.47
2019-04-06T14:00:02.880Z,15.98
2019-04-06T14:10:02.690Z,16.05
2019-04-06T14:20:02.850Z,15.50
2019-04-06T14:30:03.409Z,16.46
2019-04-06T14:40:02.304Z,15.97
2019-04-06T14:50:03.300Z,16.11
2019-04-06T15:00:02.971Z,16.17
2019-04-06T15:10:02.944Z,15.61
2019-04-06T15:20:02.430Z,16.18
2019-04-06T15:30:02.677Z,16.44
2019-04-06T15:40:03.159Z,15.74
2019-04-06T15:50:02.551Z,15.66
2019-04-06T16:00:03.395Z,15.64
2019-04-06T16:10:03.336Z,15.41
2019-04-06T16:20:03.066Z,15.09
2019-04-06T16:30:04.237Z,14.90
2019-04-06T16:40:02.499Z,14.83
2019-04-06T16:50:02.236Z,14.83
2019-04-06T17:00:04.707Z,14.57
2019-04-06T17:10:03.211Z,14.42
2019-04-06T17:20:02.590Z,14.07
2019-04-06T17:30:03.205Z,13.67
2019-04-06T17:40:02.948Z,13.37
2019-04-06T17:50:03.443Z,13.03
2019-04-06T18:00:03.018Z,12.64
2019-04-06T18:10:03.357Z,12.33
2019-04-06T18:20:02.258Z,12.15
2019-04-06T18:30:03.345Z,11.91
2019-04-06T18:40:02.754Z,11.79
2019-04-06T18:50:02.744Z,11.61
2019-04-06T19:00:03.018Z,11.35
2019-04-06T19:10:02.591Z,11.21
2019-04-06T19:20:02.772Z,11.11
2019-04-06T19:30:03.262Z,10.94
2019-04-06T19:40:03.069Z,10.92
2019-04-06T19:50:03.226Z,10.87
2019-04-06T20:00:03.361Z,10.98
2019-04-06T20:10:02.688Z,10.52
2019-04-06T20:20:02.084Z,10.50
2019-04-06T20:30:03.449Z,10.38
2019-04-06T20:40:02.504Z,10.09
2019-04-06T20:50:02.770Z,9.97
2019-04-06T21:00:02.790Z,9.93
2019-04-06T21:10:03.160Z,9.80
2019-04-06T21:20:03.066Z,9.64
2019-04-06T21:30:03.369Z,9.61
2019-04-06T21:40:03.178Z,9.61
2019-04-06T21:50:02.557Z,9.54
2019-04-06T22:00:04.247Z,9.34
2019-04-06T22:10:03.243Z,9.06
2019-04-06T22:20:03.072Z,8.91
2019-04-06T22:30:03.424Z,8.64
2019-04-06T22:40:02.573Z,8.50
2019-04-06T22:50:03.011Z,8.37
2019-04-06T23:00:03.589Z,8.28
2019-04-06T23:10:03.396Z,8.02
2019-04-06T23:20:03.189Z,7.88
2019-04-06T23:30:03.704Z,7.81
2019-04-06T23:40:03.019Z,7.59
2019-04-06T23:50:02.797Z,7.41
